sensor_id;sensor_type;location;lat;lon;timestamp;temperature;humidity
68485;DHT22;55472;50.060;21.960;2024-01-15T00:00:45;-2.00;99.90
68485;DHT22;55472;50.060;21.960;2024-01-15T00:03:31;-2.00;99.90
68485;DHT22;55472;50.060;21.960;2024-01-15T00:05:57;-2.00;99.90
68485;DHT22;55472;50.060;21.960;2024-01-15T00:08:23;-2.00;99.90
68485;DHT22;55472;50.060;21.960;2024-01-15T00:10:49;-1.90;99.90
68485;DHT22;55472;50.060;21.960;2024-01-15T00:13:15;-1.90;99.90
68485;DHT22;55472;50.060;21.960;2024-01-15T00:15:41;-1.90;99.90
68485;DHT22;55472;50.060;21.960;2024-01-15T00:18:07;-1.90;99.90
68485;DHT22;55472;50.060;21.960;2024-01-15T00:20:34;-1.90;99.90
68485;DHT22;55472;50.060;21.960;2024-01-15T00:23:00;-1.90;99.90
68485;DHT22;55472;50.060;21.960;2024-01-15T00:25:26;-1.90;99.90
68485;DHT22;55472;50.060;21.960;2024-01-15T00:27:52;-1.90;99.90
68485;DHT22;55472;50.060;21.960;2024-01-15T00:30:18;-2.00;99.90
68485;DHT22;55472;50.060;21.960;2024-01-15T00:32:44;-2.00;99.90
68485;DHT22;55472;50.060;21.960;2024-01-15T00:35:10;-1.90;99.90
68485;DHT22;55472;50.060;21.960;2024-01-15T00:37:36;-2.00;99.90
68485;DHT22;55472;50.060;21.960;2024-01-15T00:40:04;-1.90;99.90
68485;DHT22;55472;50.060;21.960;2024-01-15T00:42:30;-1.90;99.90
68485;DHT22;55472;50.060;21.960;2024-01-15T00:44:57;-1.90;99.90
68485;DHT22;55472;50.060;21.960;2024-01-15T00:47:23;-1.90;99.90
68485;DHT22;55472;50.060;21.960;2024-01-15T00:49:49;-1.90;99.90
68485;DHT22;55472;50.060;21.960;2024-01-15T00:52:15;-1.90;99.90
68485;DHT22;55472;50.060;21.960;2024-01-15T00:54:41;-1.90;99.90
68485;DHT22;55472;50.060;21.960;2024-01-15T00:57:07;-1.90;99.90
68485;DHT22;55472;50.060;21.960;2024-01-15T00:59:33;-1.90;99.90
68485;DHT22;55472;50.060;21.960;2024-01-15T01:01:59;-1.90;99.90
68485;DHT22;55472;50.060;21.960;2024-01-15T01:04:26;-1.90;99.90
68485;DHT22;55472;50.060;21.960;2024-01-15T01:06:52;-1.90;99.90
68485;DHT22;55472;50.060;21.960;2024-01-15T01:09:18;-1.90;99.60
68485;DHT22;55472;50.060;21.960;2024-01-15T01:11:44;-1.90;99.70
68485;DHT22;55472;50.060;21.960;2024-01-15T01:14:10;-1.90;99.10
68485;DHT22;55472;50.060;21.960;2024-01-15T01:16:36;-1.90;98.90
68485;DHT22;55472;50.060;21.960;2024-01-15T01:19:05;-1.90;99.00
68485;DHT22;55472;50.060;21.960;2024-01-15T01:21:33;-1.80;98.70
68485;DHT22;55472;50.060;21.960;2024-01-15T01:23:59;-1.90;98.80
68485;DHT22;55472;50.060;21.960;2024-01-15T01:26:25;-1.80;98.50
68485;DHT22;55472;50.060;21.960;2024-01-15T01:28:51;-1.80;98.40
68485;DHT22;55472;50.060;21.960;2024-01-15T01:31:18;-1.80;98.00
68485;DHT22;55472;50.060;21.960;2024-01-15T01:33:44;-1.80;97.90
68485;DHT22;55472;50.060;21.960;2024-01-15T01:36:10;-1.80;98.20
68485;DHT22;55472;50.060;21.960;2024-01-15T01:38:37;-1.80;98.20
68485;DHT22;55472;50.060;21.960;2024-01-15T01:41:03;-1.80;98.00
68485;DHT22;55472;50.060;21.960;2024-01-15T01:43:29;-1.80;98.20
68485;DHT22;55472;50.060;21.960;2024-01-15T01:45:57;-1.80;98.00
68485;DHT22;55472;50.060;21.960;2024-01-15T01:48:25;-1.80;98.20
68485;DHT22;55472;50.060;21.960;2024-01-15T01:50:58;-1.80;98.10
68485;DHT22;55472;50.060;21.960;2024-01-15T01:53:26;-1.80;98.40
68485;DHT22;55472;50.060;21.960;2024-01-15T01:55:54;-1.80;98.20
68485;DHT22;55472;50.060;21.960;2024-01-15T01:58:21;-1.80;98.40
68485;DHT22;55472;50.060;21.960;2024-01-15T02:00:48;-1.80;98.30
68485;DHT22;55472;50.060;21.960;2024-01-15T02:03:15;-1.80;98.20
68485;DHT22;55472;50.060;21.960;2024-01-15T02:05:43;-1.80;98.10
68485;DHT22;55472;50.060;21.960;2024-01-15T02:08:10;-1.80;98.20
68485;DHT22;55472;50.060;21.960;2024-01-15T02:10:36;-1.80;98.30
68485;DHT22;55472;50.060;21.960;2024-01-15T02:13:02;-1.80;97.60
68485;DHT22;55472;50.060;21.960;2024-01-15T02:15:29;-1.80;97.10
68485;DHT22;55472;50.060;21.960;2024-01-15T02:18:00;-1.80;97.10
68485;DHT22;55472;50.060;21.960;2024-01-15T02:20:27;-1.70;97.10
68485;DHT22;55472;50.060;21.960;2024-01-15T02:22:53;-1.70;96.70
68485;DHT22;55472;50.060;21.960;2024-01-15T02:25:20;-1.70;95.90
68485;DHT22;55472;50.060;21.960;2024-01-15T02:27:47;-1.70;95.90
68485;DHT22;55472;50.060;21.960;2024-01-15T02:30:13;-1.70;96.30
68485;DHT22;55472;50.060;21.960;2024-01-15T02:32:39;-1.70;96.60
68485;DHT22;55472;50.060;21.960;2024-01-15T02:35:06;-1.70;96.20
68485;DHT22;55472;50.060;21.960;2024-01-15T02:37:32;-1.70;96.20
68485;DHT22;55472;50.060;21.960;2024-01-15T02:39:58;-1.70;96.20
68485;DHT22;55472;50.060;21.960;2024-01-15T02:42:26;-1.70;96.00
68485;DHT22;55472;50.060;21.960;2024-01-15T02:44:52;-1.70;95.80
68485;DHT22;55472;50.060;21.960;2024-01-15T02:47:18;-1.70;96.00
68485;DHT22;55472;50.060;21.960;2024-01-15T02:49:44;-1.70;95.90
68485;DHT22;55472;50.060;21.960;2024-01-15T02:52:10;-1.70;96.30
68485;DHT22;55472;50.060;21.960;2024-01-15T02:54:37;-1.70;96.30
68485;DHT22;55472;50.060;21.960;2024-01-15T02:57:03;-1.70;95.80
68485;DHT22;55472;50.060;21.960;2024-01-15T02:59:29;-1.70;95.60
68485;DHT22;55472;50.060;21.960;2024-01-15T03:01:55;-1.70;95.40
68485;DHT22;55472;50.060;21.960;2024-01-15T03:04:21;-1.70;95.60
68485;DHT22;55472;50.060;21.960;2024-01-15T03:06:47;-1.70;95.80
68485;DHT22;55472;50.060;21.960;2024-01-15T03:09:13;-1.70;95.70
68485;DHT22;55472;50.060;21.960;2024-01-15T03:11:40;-1.70;95.90
68485;DHT22;55472;50.060;21.960;2024-01-15T03:14:06;-1.70;95.60
68485;DHT22;55472;50.060;21.960;2024-01-15T03:16:32;-1.70;95.40
68485;DHT22;55472;50.060;21.960;2024-01-15T03:18:58;-1.70;95.20
68485;DHT22;55472;50.060;21.960;2024-01-15T03:21:24;-1.70;94.90
68485;DHT22;55472;50.060;21.960;2024-01-15T03:23:51;-1.60;94.90
68485;DHT22;55472;50.060;21.960;2024-01-15T03:26:17;-1.60;94.50
68485;DHT22;55472;50.060;21.960;2024-01-15T03:28:43;-1.70;94.90
68485;DHT22;55472;50.060;21.960;2024-01-15T03:31:09;-1.70;94.80
68485;DHT22;55472;50.060;21.960;2024-01-15T03:33:35;-1.70;94.50
68485;DHT22;55472;50.060;21.960;2024-01-15T03:36:01;-1.70;94.00
68485;DHT22;55472;50.060;21.960;2024-01-15T03:38:28;-1.60;94.00
68485;DHT22;55472;50.060;21.960;2024-01-15T03:40:54;-1.60;93.60
68485;DHT22;55472;50.060;21.960;2024-01-15T03:43:21;-1.60;93.40
68485;DHT22;55472;50.060;21.960;2024-01-15T03:45:47;-1.60;93.50
68485;DHT22;55472;50.060;21.960;2024-01-15T03:48:13;-1.60;93.80
68485;DHT22;55472;50.060;21.960;2024-01-15T03:50:39;-1.60;93.10
68485;DHT22;55472;50.060;21.960;2024-01-15T03:53:05;-1.60;93.70
68485;DHT22;55472;50.060;21.960;2024-01-15T03:55:32;-1.60;93.80
68485;DHT22;55472;50.060;21.960;2024-01-15T03:57:58;-1.60;93.90
68485;DHT22;55472;50.060;21.960;2024-01-15T04:00:24;-1.60;93.90
68485;DHT22;55472;50.060;21.960;2024-01-15T04:02:51;-1.60;93.70
68485;DHT22;55472;50.060;21.960;2024-01-15T04:05:17;-1.60;93.80
68485;DHT22;55472;50.060;21.960;2024-01-15T04:07:43;-1.60;94.10
68485;DHT22;55472;50.060;21.960;2024-01-15T04:10:09;-1.60;93.30
68485;DHT22;55472;50.060;21.960;2024-01-15T04:12:35;-1.60;93.60
68485;DHT22;55472;50.060;21.960;2024-01-15T04:15:01;-1.60;93.70
68485;DHT22;55472;50.060;21.960;2024-01-15T04:17:27;-1.60;93.50
68485;DHT22;55472;50.060;21.960;2024-01-15T04:19:54;-1.60;93.00
68485;DHT22;55472;50.060;21.960;2024-01-15T04:22:21;-1.60;93.00
68485;DHT22;55472;50.060;21.960;2024-01-15T04:24:47;-1.60;93.00
68485;DHT22;55472;50.060;21.960;2024-01-15T04:27:14;-1.60;92.80
68485;DHT22;55472;50.060;21.960;2024-01-15T04:29:40;-1.60;93.00
68485;DHT22;55472;50.060;21.960;2024-01-15T04:32:06;-1.60;92.30
68485;DHT22;55472;50.060;21.960;2024-01-15T04:34:32;-1.50;92.50
68485;DHT22;55472;50.060;21.960;2024-01-15T04:36:58;-1.50;92.30
68485;DHT22;55472;50.060;21.960;2024-01-15T04:39:24;-1.50;92.10
68485;DHT22;55472;50.060;21.960;2024-01-15T04:41:51;-1.50;92.20
68485;DHT22;55472;50.060;21.960;2024-01-15T04:44:17;-1.50;91.60
68485;DHT22;55472;50.060;21.960;2024-01-15T04:46:43;-1.50;92.10
68485;DHT22;55472;50.060;21.960;2024-01-15T04:49:10;-1.50;92.00
68485;DHT22;55472;50.060;21.960;2024-01-15T04:51:37;-1.50;92.00
68485;DHT22;55472;50.060;21.960;2024-01-15T04:54:03;-1.50;92.70
68485;DHT22;55472;50.060;21.960;2024-01-15T04:56:30;-1.60;92.70
68485;DHT22;55472;50.060;21.960;2024-01-15T04:58:56;-1.60;93.20
68485;DHT22;55472;50.060;21.960;2024-01-15T05:01:22;-1.60;93.30
68485;DHT22;55472;50.060;21.960;2024-01-15T05:03:48;-1.60;94.00
68485;DHT22;55472;50.060;21.960;2024-01-15T05:06:15;-1.60;94.10
68485;DHT22;55472;50.060;21.960;2024-01-15T05:08:41;-1.70;94.10
68485;DHT22;55472;50.060;21.960;2024-01-15T05:11:07;-1.70;94.40
68485;DHT22;55472;50.060;21.960;2024-01-15T05:13:33;-1.70;94.20
68485;DHT22;55472;50.060;21.960;2024-01-15T05:16:00;-1.70;94.30
68485;DHT22;55472;50.060;21.960;2024-01-15T05:18:26;-1.70;94.10
68485;DHT22;55472;50.060;21.960;2024-01-15T05:20:52;-1.70;93.90
68485;DHT22;55472;50.060;21.960;2024-01-15T05:23:18;-1.70;93.90
68485;DHT22;55472;50.060;21.960;2024-01-15T05:25:44;-1.70;93.90
68485;DHT22;55472;50.060;21.960;2024-01-15T05:28:10;-1.80;94.40
68485;DHT22;55472;50.060;21.960;2024-01-15T05:30:37;-1.70;94.40
68485;DHT22;55472;50.060;21.960;2024-01-15T05:33:03;-1.80;94.30
68485;DHT22;55472;50.060;21.960;2024-01-15T05:35:30;-1.80;94.60
68485;DHT22;55472;50.060;21.960;2024-01-15T05:37:55;-1.80;94.40
68485;DHT22;55472;50.060;21.960;2024-01-15T05:40:22;-1.80;94.80
68485;DHT22;55472;50.060;21.960;2024-01-15T05:42:48;-1.80;95.00
68485;DHT22;55472;50.060;21.960;2024-01-15T05:45:14;-1.80;95.20
68485;DHT22;55472;50.060;21.960;2024-01-15T05:47:40;-1.80;95.60
68485;DHT22;55472;50.060;21.960;2024-01-15T05:50:06;-1.80;95.70
68485;DHT22;55472;50.060;21.960;2024-01-15T05:52:33;-1.90;95.70
68485;DHT22;55472;50.060;21.960;2024-01-15T05:55:00;-1.90;95.30
68485;DHT22;55472;50.060;21.960;2024-01-15T05:57:26;-1.90;95.70
68485;DHT22;55472;50.060;21.960;2024-01-15T05:59:52;-1.90;95.80
68485;DHT22;55472;50.060;21.960;2024-01-15T06:02:18;-1.90;95.40
68485;DHT22;55472;50.060;21.960;2024-01-15T06:04:44;-1.90;95.10
68485;DHT22;55472;50.060;21.960;2024-01-15T06:07:10;-1.80;95.00
68485;DHT22;55472;50.060;21.960;2024-01-15T06:09:37;-1.90;95.00
68485;DHT22;55472;50.060;21.960;2024-01-15T06:12:05;-1.80;95.30
68485;DHT22;55472;50.060;21.960;2024-01-15T06:14:32;-1.90;95.20
68485;DHT22;55472;50.060;21.960;2024-01-15T06:16:58;-1.80;95.30
68485;DHT22;55472;50.060;21.960;2024-01-15T06:19:25;-1.80;94.60
68485;DHT22;55472;50.060;21.960;2024-01-15T06:21:51;-1.80;95.10
68485;DHT22;55472;50.060;21.960;2024-01-15T06:24:17;-1.80;94.90
68485;DHT22;55472;50.060;21.960;2024-01-15T06:26:46;-1.80;95.20
68485;DHT22;55472;50.060;21.960;2024-01-15T06:29:13;-1.80;95.30
68485;DHT22;55472;50.060;21.960;2024-01-15T06:31:39;-1.80;94.90
68485;DHT22;55472;50.060;21.960;2024-01-15T06:34:05;-1.80;94.70
68485;DHT22;55472;50.060;21.960;2024-01-15T06:36:31;-1.80;94.70
68485;DHT22;55472;50.060;21.960;2024-01-15T06:38:58;-1.80;95.00
68485;DHT22;55472;50.060;21.960;2024-01-15T06:41:24;-1.80;95.00
68485;DHT22;55472;50.060;21.960;2024-01-15T06:43:51;-1.80;94.70
68485;DHT22;55472;50.060;21.960;2024-01-15T06:46:21;-1.80;94.90
68485;DHT22;55472;50.060;21.960;2024-01-15T06:48:48;-1.80;94.90
68485;DHT22;55472;50.060;21.960;2024-01-15T06:51:15;-1.70;94.80
68485;DHT22;55472;50.060;21.960;2024-01-15T06:53:42;-1.70;94.70
68485;DHT22;55472;50.060;21.960;2024-01-15T06:56:08;-1.70;94.60
68485;DHT22;55472;50.060;21.960;2024-01-15T06:58:35;-1.70;94.50
68485;DHT22;55472;50.060;21.960;2024-01-15T07:01:00;-1.70;94.20
68485;DHT22;55472;50.060;21.960;2024-01-15T07:03:28;-1.70;94.60
68485;DHT22;55472;50.060;21.960;2024-01-15T07:05:54;-1.70;94.40
68485;DHT22;55472;50.060;21.960;2024-01-15T07:08:20;-1.70;94.30
68485;DHT22;55472;50.060;21.960;2024-01-15T07:10:46;-1.70;93.60
68485;DHT22;55472;50.060;21.960;2024-01-15T07:13:12;-1.70;94.00
68485;DHT22;55472;50.060;21.960;2024-01-15T07:15:38;-1.70;93.90
68485;DHT22;55472;50.060;21.960;2024-01-15T07:18:05;-1.60;93.60
68485;DHT22;55472;50.060;21.960;2024-01-15T07:20:31;-1.60;93.60
68485;DHT22;55472;50.060;21.960;2024-01-15T07:22:57;-1.60;93.60
68485;DHT22;55472;50.060;21.960;2024-01-15T07:25:23;-1.60;93.20
68485;DHT22;55472;50.060;21.960;2024-01-15T07:27:51;-1.60;93.40
68485;DHT22;55472;50.060;21.960;2024-01-15T07:30:19;-1.60;93.60
68485;DHT22;55472;50.060;21.960;2024-01-15T07:32:48;-1.60;93.50
68485;DHT22;55472;50.060;21.960;2024-01-15T07:35:14;-1.60;93.70
68485;DHT22;55472;50.060;21.960;2024-01-15T07:37:41;-1.60;94.00
68485;DHT22;55472;50.060;21.960;2024-01-15T07:40:07;-1.60;93.20
68485;DHT22;55472;50.060;21.960;2024-01-15T07:42:35;-1.60;93.00
68485;DHT22;55472;50.060;21.960;2024-01-15T07:45:01;-1.60;93.10
68485;DHT22;55472;50.060;21.960;2024-01-15T07:47:27;-1.50;93.30
68485;DHT22;55472;50.060;21.960;2024-01-15T07:49:53;-1.50;93.20
68485;DHT22;55472;50.060;21.960;2024-01-15T07:52:20;-1.60;93.80
68485;DHT22;55472;50.060;21.960;2024-01-15T07:54:46;-1.50;93.60
68485;DHT22;55472;50.060;21.960;2024-01-15T07:57:13;-1.50;93.30
68485;DHT22;55472;50.060;21.960;2024-01-15T07:59:39;-1.50;93.10
68485;DHT22;55472;50.060;21.960;2024-01-15T08:02:06;-1.50;92.90
68485;DHT22;55472;50.060;21.960;2024-01-15T08:04:32;-1.50;92.80
68485;DHT22;55472;50.060;21.960;2024-01-15T08:06:58;-1.50;92.80
68485;DHT22;55472;50.060;21.960;2024-01-15T08:09:24;-1.50;93.20
68485;DHT22;55472;50.060;21.960;2024-01-15T08:11:50;-1.40;92.70
68485;DHT22;55472;50.060;21.960;2024-01-15T08:14:17;-1.40;92.90
68485;DHT22;55472;50.060;21.960;2024-01-15T08:16:44;-1.40;91.70
68485;DHT22;55472;50.060;21.960;2024-01-15T08:19:09;-1.40;92.50
68485;DHT22;55472;50.060;21.960;2024-01-15T08:21:36;-1.30;92.20
68485;DHT22;55472;50.060;21.960;2024-01-15T08:24:02;-1.30;92.30
68485;DHT22;55472;50.060;21.960;2024-01-15T08:26:29;-1.20;92.10
68485;DHT22;55472;50.060;21.960;2024-01-15T08:28:56;-1.20;92.10
68485;DHT22;55472;50.060;21.960;2024-01-15T08:31:23;-1.20;92.60
68485;DHT22;55472;50.060;21.960;2024-01-15T08:33:49;-1.20;91.90
68485;DHT22;55472;50.060;21.960;2024-01-15T08:36:15;-1.20;92.00
68485;DHT22;55472;50.060;21.960;2024-01-15T08:38:41;-1.10;91.70
68485;DHT22;55472;50.060;21.960;2024-01-15T08:41:08;-1.10;91.70
68485;DHT22;55472;50.060;21.960;2024-01-15T08:43:35;-1.10;91.50
68485;DHT22;55472;50.060;21.960;2024-01-15T08:46:01;-1.10;90.80
68485;DHT22;55472;50.060;21.960;2024-01-15T08:48:28;-1.10;90.90
68485;DHT22;55472;50.060;21.960;2024-01-15T08:50:55;-1.10;90.90
68485;DHT22;55472;50.060;21.960;2024-01-15T08:53:21;-1.10;90.70
68485;DHT22;55472;50.060;21.960;2024-01-15T08:55:47;-1.00;91.20
68485;DHT22;55472;50.060;21.960;2024-01-15T08:58:14;-1.00;90.80
68485;DHT22;55472;50.060;21.960;2024-01-15T09:00:40;-1.00;90.70
68485;DHT22;55472;50.060;21.960;2024-01-15T09:03:06;-1.00;90.30
68485;DHT22;55472;50.060;21.960;2024-01-15T09:05:34;-1.00;90.00
68485;DHT22;55472;50.060;21.960;2024-01-15T09:08:00;-0.90;90.20
68485;DHT22;55472;50.060;21.960;2024-01-15T09:10:27;-0.90;90.10
68485;DHT22;55472;50.060;21.960;2024-01-15T09:12:53;-0.90;89.90
68485;DHT22;55472;50.060;21.960;2024-01-15T09:15:19;-0.90;89.90
68485;DHT22;55472;50.060;21.960;2024-01-15T09:17:45;-0.90;90.10
68485;DHT22;55472;50.060;21.960;2024-01-15T09:20:12;-0.80;90.50
68485;DHT22;55472;50.060;21.960;2024-01-15T09:22:38;-0.80;89.40
68485;DHT22;55472;50.060;21.960;2024-01-15T09:25:08;-0.80;88.50
68485;DHT22;55472;50.060;21.960;2024-01-15T09:27:35;-0.70;88.60
68485;DHT22;55472;50.060;21.960;2024-01-15T09:30:03;-0.70;88.50
68485;DHT22;55472;50.060;21.960;2024-01-15T09:32:30;-0.70;88.60
68485;DHT22;55472;50.060;21.960;2024-01-15T09:34:58;-0.60;87.90
68485;DHT22;55472;50.060;21.960;2024-01-15T09:37:24;-0.50;88.00
68485;DHT22;55472;50.060;21.960;2024-01-15T09:39:51;-0.50;87.80
68485;DHT22;55472;50.060;21.960;2024-01-15T09:42:17;-0.50;87.70
68485;DHT22;55472;50.060;21.960;2024-01-15T09:44:45;-0.60;88.10
68485;DHT22;55472;50.060;21.960;2024-01-15T09:47:12;-0.50;88.40
68485;DHT22;55472;50.060;21.960;2024-01-15T09:49:38;-0.50;88.40
68485;DHT22;55472;50.060;21.960;2024-01-15T09:52:07;-0.50;88.40
68485;DHT22;55472;50.060;21.960;2024-01-15T09:54:33;-0.40;88.30
68485;DHT22;55472;50.060;21.960;2024-01-15T09:57:03;-0.30;87.70
68485;DHT22;55472;50.060;21.960;2024-01-15T09:59:30;-0.20;86.70
68485;DHT22;55472;50.060;21.960;2024-01-15T10:01:57;-0.10;86.30
68485;DHT22;55472;50.060;21.960;2024-01-15T10:04:24;0.00;85.90
68485;DHT22;55472;50.060;21.960;2024-01-15T10:06:51;0.10;85.60
68485;DHT22;55472;50.060;21.960;2024-01-15T10:09:18;0.20;86.00
68485;DHT22;55472;50.060;21.960;2024-01-15T10:11:44;0.60;85.70
68485;DHT22;55472;50.060;21.960;2024-01-15T10:14:12;1.40;84.20
68485;DHT22;55472;50.060;21.960;2024-01-15T10:16:42;2.10;81.10
68485;DHT22;55472;50.060;21.960;2024-01-15T10:19:10;2.10;79.50
68485;DHT22;55472;50.060;21.960;2024-01-15T10:21:37;2.30;80.60
68485;DHT22;55472;50.060;21.960;2024-01-15T10:24:04;2.70;78.30
68485;DHT22;55472;50.060;21.960;2024-01-15T10:26:31;2.80;76.30
68485;DHT22;55472;50.060;21.960;2024-01-15T10:29:01;2.80;75.90
68485;DHT22;55472;50.060;21.960;2024-01-15T10:31:30;2.80;75.60
68485;DHT22;55472;50.060;21.960;2024-01-15T10:34:12;3.00;76.00
68485;DHT22;55472;50.060;21.960;2024-01-15T10:36:41;3.30;74.20
68485;DHT22;55472;50.060;21.960;2024-01-15T10:39:07;3.80;73.50
68485;DHT22;55472;50.060;21.960;2024-01-15T10:41:33;4.10;71.50
68485;DHT22;55472;50.060;21.960;2024-01-15T10:44:00;4.30;69.60
68485;DHT22;55472;50.060;21.960;2024-01-15T10:46:26;4.20;70.50
68485;DHT22;55472;50.060;21.960;2024-01-15T10:48:52;3.90;70.80
68485;DHT22;55472;50.060;21.960;2024-01-15T10:51:19;3.60;71.60
68485;DHT22;55472;50.060;21.960;2024-01-15T10:53:46;3.30;71.60
68485;DHT22;55472;50.060;21.960;2024-01-15T10:56:12;2.90;72.90
68485;DHT22;55472;50.060;21.960;2024-01-15T10:58:40;2.60;73.60
68485;DHT22;55472;50.060;21.960;2024-01-15T11:01:07;2.30;75.50
68485;DHT22;55472;50.060;21.960;2024-01-15T11:03:34;2.10;75.80
68485;DHT22;55472;50.060;21.960;2024-01-15T11:06:00;1.80;77.00
68485;DHT22;55472;50.060;21.960;2024-01-15T11:08:26;1.60;78.40
68485;DHT22;55472;50.060;21.960;2024-01-15T11:10:53;1.50;78.80
68485;DHT22;55472;50.060;21.960;2024-01-15T11:16:04;1.30;79.80
68485;DHT22;55472;50.060;21.960;2024-01-15T11:26:35;0.90;81.60
68485;DHT22;55472;50.060;21.960;2024-01-15T11:29:06;0.90;81.60
68485;DHT22;55472;50.060;21.960;2024-01-15T11:34:09;0.80;82.30
68485;DHT22;55472;50.060;21.960;2024-01-15T11:41:54;0.80;83.30
68485;DHT22;55472;50.060;21.960;2024-01-15T11:44:21;0.70;83.70
68485;DHT22;55472;50.060;21.960;2024-01-15T11:47:00;0.80;84.00
68485;DHT22;55472;50.060;21.960;2024-01-15T11:49:58;0.80;84.70
68485;DHT22;55472;50.060;21.960;2024-01-15T11:52:38;0.80;84.10
68485;DHT22;55472;50.060;21.960;2024-01-15T11:55:19;0.80;83.60
68485;DHT22;55472;50.060;21.960;2024-01-15T11:57:52;0.80;83.50
68485;DHT22;55472;50.060;21.960;2024-01-15T12:00:21;0.80;83.60
68485;DHT22;55472;50.060;21.960;2024-01-15T12:02:48;0.80;84.00
68485;DHT22;55472;50.060;21.960;2024-01-15T12:05:18;0.80;84.30
68485;DHT22;55472;50.060;21.960;2024-01-15T12:07:49;0.80;84.20
68485;DHT22;55472;50.060;21.960;2024-01-15T12:10:18;0.80;84.80
68485;DHT22;55472;50.060;21.960;2024-01-15T12:15:25;0.80;84.90
68485;DHT22;55472;50.060;21.960;2024-01-15T12:17:53;0.70;85.10
68485;DHT22;55472;50.060;21.960;2024-01-15T12:20:21;0.70;84.90
68485;DHT22;55472;50.060;21.960;2024-01-15T12:22:47;0.70;84.90
68485;DHT22;55472;50.060;21.960;2024-01-15T12:25:14;0.70;84.40
68485;DHT22;55472;50.060;21.960;2024-01-15T12:27:42;0.70;83.90
68485;DHT22;55472;50.060;21.960;2024-01-15T12:30:11;0.70;83.60
68485;DHT22;55472;50.060;21.960;2024-01-15T12:32:40;0.70;83.80
68485;DHT22;55472;50.060;21.960;2024-01-15T12:35:08;0.70;83.50
68485;DHT22;55472;50.060;21.960;2024-01-15T12:37:44;0.60;83.30
68485;DHT22;55472;50.060;21.960;2024-01-15T12:40:19;0.60;83.90
68485;DHT22;55472;50.060;21.960;2024-01-15T12:42:45;0.70;84.10
68485;DHT22;55472;50.060;21.960;2024-01-15T12:45:12;0.70;84.40
68485;DHT22;55472;50.060;21.960;2024-01-15T12:47:39;0.80;83.80
68485;DHT22;55472;50.060;21.960;2024-01-15T12:50:08;0.90;83.30
68485;DHT22;55472;50.060;21.960;2024-01-15T12:52:35;0.90;83.80
68485;DHT22;55472;50.060;21.960;2024-01-15T12:55:07;1.00;82.70
68485;DHT22;55472;50.060;21.960;2024-01-15T12:57:35;1.10;83.10
68485;DHT22;55472;50.060;21.960;2024-01-15T13:00:03;1.20;82.80
68485;DHT22;55472;50.060;21.960;2024-01-15T13:02:34;1.30;82.40
68485;DHT22;55472;50.060;21.960;2024-01-15T13:05:01;1.40;82.40
68485;DHT22;55472;50.060;21.960;2024-01-15T13:07:30;1.40;82.30
68485;DHT22;55472;50.060;21.960;2024-01-15T13:09:56;1.50;82.00
68485;DHT22;55472;50.060;21.960;2024-01-15T13:12:22;1.50;81.20
68485;DHT22;55472;50.060;21.960;2024-01-15T13:14:51;1.50;81.70
68485;DHT22;55472;50.060;21.960;2024-01-15T13:17:17;1.50;82.00
68485;DHT22;55472;50.060;21.960;2024-01-15T13:19:43;1.50;81.70
68485;DHT22;55472;50.060;21.960;2024-01-15T13:22:09;1.40;81.90
68485;DHT22;55472;50.060;21.960;2024-01-15T13:24:36;1.40;81.50
68485;DHT22;55472;50.060;21.960;2024-01-15T13:27:05;1.30;82.60
68485;DHT22;55472;50.060;21.960;2024-01-15T13:29:31;1.30;83.00
68485;DHT22;55472;50.060;21.960;2024-01-15T13:31:58;1.30;83.10
68485;DHT22;55472;50.060;21.960;2024-01-15T13:34:25;1.20;82.60
68485;DHT22;55472;50.060;21.960;2024-01-15T13:36:51;1.20;81.20
68485;DHT22;55472;50.060;21.960;2024-01-15T13:39:20;1.20;81.10
68485;DHT22;55472;50.060;21.960;2024-01-15T13:41:46;1.10;81.90
68485;DHT22;55472;50.060;21.960;2024-01-15T13:44:13;1.10;82.50
68485;DHT22;55472;50.060;21.960;2024-01-15T13:46:39;1.10;82.50
68485;DHT22;55472;50.060;21.960;2024-01-15T13:49:05;1.00;81.70
68485;DHT22;55472;50.060;21.960;2024-01-15T13:51:35;1.00;81.50
68485;DHT22;55472;50.060;21.960;2024-01-15T13:54:02;0.90;81.00
68485;DHT22;55472;50.060;21.960;2024-01-15T13:56:30;1.00;80.80
68485;DHT22;55472;50.060;21.960;2024-01-15T13:58:58;0.90;81.60
68485;DHT22;55472;50.060;21.960;2024-01-15T14:01:25;0.90;81.00
68485;DHT22;55472;50.060;21.960;2024-01-15T14:03:53;0.90;80.90
68485;DHT22;55472;50.060;21.960;2024-01-15T14:06:20;0.90;80.40
68485;DHT22;55472;50.060;21.960;2024-01-15T14:08:46;1.00;79.90
68485;DHT22;55472;50.060;21.960;2024-01-15T14:11:12;0.90;80.60
68485;DHT22;55472;50.060;21.960;2024-01-15T14:13:39;0.90;79.40
68485;DHT22;55472;50.060;21.960;2024-01-15T14:16:06;0.90;79.10
68485;DHT22;55472;50.060;21.960;2024-01-15T14:18:32;0.80;78.30
68485;DHT22;55472;50.060;21.960;2024-01-15T14:20:58;0.80;77.70
68485;DHT22;55472;50.060;21.960;2024-01-15T14:23:24;0.80;77.80
68485;DHT22;55472;50.060;21.960;2024-01-15T14:25:50;0.70;78.10
68485;DHT22;55472;50.060;21.960;2024-01-15T14:28:16;0.70;77.80
68485;DHT22;55472;50.060;21.960;2024-01-15T14:30:42;0.70;77.80
68485;DHT22;55472;50.060;21.960;2024-01-15T14:33:09;0.70;78.10
68485;DHT22;55472;50.060;21.960;2024-01-15T14:35:35;0.70;77.80
68485;DHT22;55472;50.060;21.960;2024-01-15T14:38:01;0.60;77.90
68485;DHT22;55472;50.060;21.960;2024-01-15T14:40:27;0.60;78.60
68485;DHT22;55472;50.060;21.960;2024-01-15T14:42:54;0.60;78.10
68485;DHT22;55472;50.060;21.960;2024-01-15T14:45:20;0.60;78.50
68485;DHT22;55472;50.060;21.960;2024-01-15T14:47:48;0.50;78.90
68485;DHT22;55472;50.060;21.960;2024-01-15T14:50:14;0.50;78.80
68485;DHT22;55472;50.060;21.960;2024-01-15T14:52:40;0.50;78.50
68485;DHT22;55472;50.060;21.960;2024-01-15T14:55:10;0.50;79.10
68485;DHT22;55472;50.060;21.960;2024-01-15T14:57:37;0.50;78.90
68485;DHT22;55472;50.060;21.960;2024-01-15T15:00:04;0.40;79.40
68485;DHT22;55472;50.060;21.960;2024-01-15T15:02:35;0.40;79.50
68485;DHT22;55472;50.060;21.960;2024-01-15T15:05:02;0.40;79.80
68485;DHT22;55472;50.060;21.960;2024-01-15T15:07:28;0.30;79.70
68485;DHT22;55472;50.060;21.960;2024-01-15T15:09:54;0.30;79.90
68485;DHT22;55472;50.060;21.960;2024-01-15T15:12:20;0.30;80.40
68485;DHT22;55472;50.060;21.960;2024-01-15T15:14:46;0.30;81.10
68485;DHT22;55472;50.060;21.960;2024-01-15T15:17:13;0.20;81.00
68485;DHT22;55472;50.060;21.960;2024-01-15T15:19:39;0.20;81.20
68485;DHT22;55472;50.060;21.960;2024-01-15T15:22:07;0.20;81.20
68485;DHT22;55472;50.060;21.960;2024-01-15T15:24:37;0.20;81.30
68485;DHT22;55472;50.060;21.960;2024-01-15T15:27:05;0.10;81.40
68485;DHT22;55472;50.060;21.960;2024-01-15T15:29:34;0.10;81.00
68485;DHT22;55472;50.060;21.960;2024-01-15T15:32:01;0.10;80.80
68485;DHT22;55472;50.060;21.960;2024-01-15T15:34:28;0.10;81.00
68485;DHT22;55472;50.060;21.960;2024-01-15T15:36:54;0.10;80.60
68485;DHT22;55472;50.060;21.960;2024-01-15T15:39:20;0.10;80.80